Terminal Aerodrome Forecast
Issued by NWS Wilmington, OH

Current Version | Previous Version | Graphics & Text | Print | Product List | Glossary On
Versions: 1 2 3 4 5 6 7 8 9 10 11 12 13 14 15 16 17 18 19 20 21 22
574
FTUS41 KILN 090904 AAA
TAFCVG
TAF AMD
KCVG 090904Z 0909/1012 28012KT 5SM -SN OVC025
      TEMPO 0909/0912 2SM -SN OVC015
     FM091400 28012G20KT P6SM -SHSN OVC025
     FM100200 28012KT 5SM -SHSN OVC025=

USA.gov is the U.S. government's official web portal to all federal, state and local government web resources and services.